الصفحة الرئيسية
METAR-TAF:

METAR-TAF

مطار :

Guadalupe Mountains National Park

Pine Springs, تكساس, الولايات المتحدة

دائرة عرض: 31-49-52N, خط طول: 104-48-32W, ارتفاع: 1661 متر

مراقبة الطقس الحالي

تاريخ ووقت الإصدار 1ساعة و 3 دقيقة قبل الساعة 20:51UTC
ريح 22 عقدة من الغرب/الجنوب الغربي تتزايد حتى 36 عقدة
درجة الحرارة 32°درجة مئوية
الرطوبة 9%
ضغط 1014 hPa
الرؤية: 16.1 كم
سماء صافية

METAR: KGDP 232051Z AUTO 24022G36KT 10SM CLR 32/M05 A2995 RMK AO2 PK WND 25036/2043 SLP047 T03221050

زمن: 16:54 (21:54 UTC)


TAF: مفقودة

أرصاد الطقس والتوقعات من أكثر من 4000 مطار (تقارير الطقس للمطار METAR والتنبؤ بالطقس بالمطارTAF).

المحطات المتاحة هي النقط الصفراء والحمراء على الخريطة.

حرك المؤشر فوق النقطة لمعرفة اسم المحطة.

ثم انقر لمعرفة أرصاد وتوقعات الطقس.

لتغيير الخارطة: اضغط على الأزرار الخضراء مع رمز الصليب الأسود للتكبير. على الزر الأخضر مع شرطة للتصغير، أو على الأسهم الخضراء للخرائط المجاورة.


METAR-TAF: